Data for 05/13/2006

Time Sea-Level Adjusted Pressure Absolute Pressure Temperature Relative Humidity Dew Point   
(mb) (inHg) (mb) (inHg) (C) (F) (%) (C) (F)
00:05 1018 30.06 847 25.01 10.2 50.4 41 -2.5 27.5
00:10 1018 30.06 847 25.01 10 50 42 -2.2 28
00:15 1018 30.06 847 25.01 9.9 49.9 42 -2.4 27.7
00:20 1018 30.06 847 25.01 9.7 49.5 44 -1.8 28.7
00:25 1018 30.06 847 25.01 9.4 49 45 -1.8 28.7
00:30 1018 30.06 847 25.01 9.5 49 44 -2 28.3
00:35 1018 30.06 847 25.01 9.5 49 44 -2 28.4
00:40 1018 30.06 847 25.01 9.2 48.5 45 -2.2 28
00:45 1018 30.06 847 25.01 9.3 48.7 43 -2.5 27.5
00:50 1018 30.06 847 25.01 9.4 48.9 46 -1.5 29.4
00:55 1018 30.06 847 25.01 8.8 47.8 48 -1.7 29
01:00 1018 30.06 847 25.01 8.5 47.3 48 -2 28.4
01:05 1018 30.06 847 25.01 8.4 47.2 48 -2 28.4
01:10 1018 30.06 847 25.01 8.4 47.1 47 -2.1 28.2
01:15 1018 30.06 847 25.01 8.3 47 48 -1.9 28.6
01:20 1018 30.06 847 25.01 8.1 46.6 49 -1.9 28.6
01:25 1018 30.06 847 25.01 8 46.4 49 -1.9 28.5
01:30 1018 30.06 847 25.01 7.9 46.2 50 -1.9 28.7
01:35 1018 30.06 848 25.04 7.6 45.7 51 -2 28.4
01:40 1018 30.06 848 25.04 7.7 45.8 47 -2.9 26.8
01:45 1018 30.06 848 25.04 8.1 46.6 44 -3.3 26.1
01:50 1019 30.09 848 25.04 8.5 47.3 42 -3.5 25.7
01:55 1019 30.09 848 25.04 8.7 47.6 42 -3.5 25.7
02:00 1019 30.09 848 25.04 8.9 47.9 42 -3.3 26
02:05 1019 30.09 848 25.04 8.6 47.6 43 -3.2 26.3
02:10 1019 30.09 848 25.04 8.5 47.3 43 -3.2 26.2
02:15 1019 30.09 848 25.04 8.3 47 44 -3.3 26.1
02:20 1019 30.09 848 25.04 8.2 46.7 44 -3.2 26.3
02:25 1019 30.09 848 25.04 8 46.4 45 -3.2 26.2
02:30 1019 30.09 848 25.04 8.1 46.6 45 -3 26.6
02:35 1019 30.09 848 25.04 7.8 46.1 47 -2.8 26.9
02:40 1019 30.09 848 25.04 7.5 45.4 47 -3.2 26.3
02:45 1019 30.09 848 25.04 7.3 45.1 46 -3.4 25.8
02:50 1019 30.09 848 25.04 7.4 45.2 47 -3.3 26
02:55 1019 30.09 848 25.04 7.4 45.2 47 -3.2 26.3
03:00 1019 30.09 848 25.04 7.1 44.8 50 -2.7 27.1
03:05 1019 30.09 848 25.04 6.3 43.3 51 -3.2 26.3
03:10 1019 30.09 848 25.04 6 42.8 48 -4 24.7
03:15 1019 30.09 848 25.04 6.5 43.7 46 -4.2 24.4
03:20 1019 30.09 848 25.04 6.8 44.2 46 -4 24.9
03:25 1019 30.09 848 25.04 6.7 44.1 47 -3.9 25.1
03:30 1019 30.09 848 25.04 6.4 43.5 49 -3.6 25.4
03:35 1019 30.09 848 25.04 6 42.9 50 -3.6 25.6
03:40 1019 30.09 849 25.07 5.9 42.7 50 -3.7 25.4
03:45 1019 30.09 849 25.07 6.1 43 49 -3.8 25.2
03:50 1020 30.12 849 25.07 6.2 43.1 48 -4 24.8
03:55 1019 30.09 849 25.07 6.4 43.4 47 -4.2 24.4
04:00 1020 30.12 849 25.07 6.4 43.5 47 -4.2 24.4
04:05 1020 30.12 849 25.07 6.3 43.3 48 -4 24.8
04:10 1020 30.12 849 25.07 6 42.7 48 -4.2 24.5
04:15 1020 30.12 849 25.07 6.2 43.1 47 -4.4 24.1
04:20 1020 30.12 849 25.07 6.5 43.6 45 -4.7 23.5
04:25 1020 30.12 849 25.07 6.6 43.8 45 -4.6 23.8
04:30 1020 30.12 849 25.07 6.7 44 46 -4.2 24.4
04:35 1020 30.12 849 25.07 6.6 43.9 46 -4.1 24.6
04:40 1020 30.12 849 25.07 6.7 44 46 -4.1 24.6
04:45 1020 30.12 849 25.07 6.3 43.3 48 -3.9 25.1
04:50 1020 30.12 849 25.07 6 42.8 49 -3.9 24.9
04:55 1020 30.12 849 25.07 6 42.8 49 -3.8 25.2
05:00 1020 30.12 849 25.07 5.6 42.1 50 -4 24.8
05:05 1020 30.12 849 25.07 5.4 41.8 52 -3.7 25.3
05:10 1020 30.12 849 25.07 5.3 41.6 50 -4.3 24.2
05:15 1020 30.12 849 25.07 5.9 42.6 47 -4.5 23.8
05:20 1020 30.12 849 25.07 6 42.8 49 -4 24.9
05:25 1020 30.12 849 25.07 5.6 42 50 -4 24.8
05:30 1020 30.12 849 25.07 5.5 41.9 50 -4.1 24.6
05:35 1020 30.12 850 25.1 5.6 42.1 49 -4.1 24.6
05:40 1020 30.12 850 25.1 5.7 42.3 50 -3.9 24.9
05:45 1020 30.12 850 25.1 5.4 41.7 51 -4 24.9
05:50 1020 30.12 850 25.1 5.7 42.3 48 -4.5 23.9
05:55 1020 30.12 850 25.1 6 42.8 50 -3.8 25.2
06:00 1021 30.15 850 25.1 5.6 42.1 51 -3.7 25.3
06:05 1021 30.15 850 25.1 5.6 42.2 50 -4.1 24.7
06:10 1021 30.15 850 25.1 5.8 42.5 48 -4.2 24.4
06:15 1021 30.15 850 25.1 5.8 42.4 51 -3.7 25.3
06:20 1021 30.15 850 25.1 5.4 41.7 51 -3.9 25
06:25 1021 30.15 850 25.1 5.3 41.6 50 -4.2 24.5
06:30 1021 30.15 850 25.1 5.4 41.7 51 -3.9 25
06:35 1021 30.15 850 25.1 5.1 41.1 53 -3.7 25.4
06:40 1021 30.15 850 25.1 4.8 40.7 51 -4.5 23.9
06:45 1021 30.15 850 25.1 5.4 41.8 48 -4.6 23.7
06:50 1021 30.15 850 25.1 5.6 42.1 49 -4.2 24.4
06:55 1021 30.15 850 25.1 5.8 42.4 50 -3.9 25
07:00 1021 30.15 850 25.1 5.7 42.2 51 -3.5 25.6
07:05 1021 30.15 850 25.1 5.7 42.3 52 -3.4 25.8
07:10 1021 30.15 850 25.1 5.7 42.2 52 -3.5 25.7
07:15 1021 30.15 850 25.1 5.9 42.7 51 -3.5 25.8
07:20 1021 30.15 850 25.1 6.2 43.2 51 -3.2 26.2
07:25 1021 30.15 850 25.1 6.5 43.7 50 -3.1 26.5
07:30 1021 30.15 850 25.1 7 44.6 48 -3.3 26
07:35 1021 30.15 850 25.1 7.3 45.1 47 -3.3 26
07:40 1021 30.15 850 25.1 7.4 45.4 46 -3.3 26.1
07:45 1021 30.15 850 25.1 7.5 45.5 47 -3.1 26.4
07:50 1021 30.15 850 25.1 8 46.5 46 -3 26.7
07:55 1021 30.15 850 25.1 8.4 47.1 45 -2.7 27.1
08:00 1021 30.15 850 25.1 8.7 47.7 45 -2.6 27.4
08:05 1021 30.15 850 25.1 9 48.2 44 -2.7 27.1
08:10 1021 30.15 850 25.1 9.8 49.6 41 -2.8 26.9
08:15 1021 30.15 850 25.1 10.3 50.5 39 -2.9 26.7
08:20 1021 30.15 850 25.1 10.8 51.4 38 -2.9 26.9
08:25 1021 30.15 850 25.1 11.6 52.8 32 -4.4 24.1
08:30 1021 30.15 850 25.1 11.9 53.5 32 -4.4 24.1
08:35 1021 30.15 850 25.1 12.7 54.9 30 -4.2 24.5
08:40 1021 30.15 850 25.1 12.9 55.1 32 -3.4 25.9
08:45 1021 30.15 850 25.1 12.8 55 33 -3 26.7
08:50 1021 30.15 850 25.1 13.2 55.7 33 -2.8 26.9
08:55 1021 30.15 850 25.1 13.5 56.3 32 -2.8 27
09:00 1021 30.15 850 25.1 13.1 55.6 34 -2.3 27.8
09:05 1021 30.15 850 25.1 13.2 55.7 33 -2.7 27.2
09:10 1021 30.15 850 25.1 13.9 57 32 -2.4 27.6
09:15 1021 30.15 850 25.1 14 57.2 32 -2.4 27.6
09:20 1021 30.15 850 25.1 13.8 56.8 32 -2.6 27.4
09:25 1021 30.15 850 25.1 13.8 56.9 32 -2.4 27.6
09:30 1021 30.15 850 25.1 13.8 56.9 32 -2.4 27.6
09:35 1021 30.15 851 25.13 14 57.1 31 -2.6 27.3
09:40 1021 30.15 851 25.13 14.7 58.4 30 -2.5 27.6
09:45 1021 30.15 851 25.13 14.7 58.5 32 -1.9 28.5
09:50 1021 30.15 851 25.13 14.7 58.4 32 -1.6 29.1
09:55 1021 30.15 851 25.13 14.5 58.1 32 -1.9 28.5
10:00 1021 30.15 851 25.13 14.7 58.4 32 -1.6 29
10:05 1021 30.15 851 25.13 14.8 58.6 32 -1.8 28.8
10:10 1021 30.15 851 25.13 15 59 31 -2.1 28.3
10:15 1021 30.15 851 25.13 14.9 58.8 30 -2.5 27.5
10:20 1021 30.15 851 25.13 15 58.9 29 -2.7 27.2
10:25 1021 30.15 851 25.13 15.3 59.5 29 -2.5 27.6
10:30 1021 30.15 851 25.13 15.4 59.8 31 -1.6 29.2
10:35 1021 30.15 851 25.13 15.4 59.7 31 -1.7 28.9
10:40 1021 30.15 851 25.13 15.6 60 30 -1.7 28.9
10:45 1022 30.18 851 25.13 15.3 59.6 31 -1.8 28.8
10:50 1021 30.15 851 25.13 15.6 60 32 -1.1 30
10:55 1021 30.15 851 25.13 15.4 59.6 32 -1.1 30
11:00 1021 30.15 851 25.13 15.8 60.4 31 -1.2 29.9
11:05 1021 30.15 851 25.13 16.1 61 30 -1.4 29.4
11:10 1022 30.18 851 25.13 16.5 61.8 29 -1.5 29.3
11:15 1022 30.18 851 25.13 16.6 61.8 28 -1.7 28.9
11:20 1022 30.18 851 25.13 16.9 62.5 25 -3 26.5
11:25 1022 30.18 851 25.13 16.7 62 26 -2.7 27.1
11:30 1022 30.18 851 25.13 16.7 62 23 -4.5 23.9
11:35 1022 30.18 851 25.13 17.2 62.9 24 -3.3 26
11:40 1022 30.18 851 25.13 17.4 63.3 22 -4.6 23.8
11:45 1022 30.18 851 25.13 17.6 63.6 22 -4 24.8
11:50 1022 30.18 851 25.13 17.9 64.2 21 -4.4 24
11:55 1022 30.18 851 25.13 17.6 63.6 23 -3.5 25.6
12:00 1021 30.15 851 25.13 17.3 63.2 22 -4.3 24.2
12:05 1021 30.15 851 25.13 18 64.4 23 -3.4 26
12:10 1021 30.15 851 25.13 18 64.3 21 -4.5 23.9
12:15 1021 30.15 851 25.13 18.3 64.9 21 -4.3 24.3
12:20 1021 30.15 851 25.13 18.5 65.2 22 -3.4 25.8
12:25 1021 30.15 851 25.13 17.3 63.2 24 -3.6 25.6
12:30 1021 30.15 850 25.1 17.4 63.2 23 -4.1 24.7
12:35 1021 30.15 850 25.1 18.5 65.3 23 -2.6 27.3
12:40 1021 30.15 850 25.1 18.3 65 21 -4.2 24.4
12:45 1021 30.15 850 25.1 18.3 64.9 22 -3.6 25.5
12:50 1021 30.15 850 25.1 18.1 64.5 21 -4.3 24.3
12:55 1021 30.15 850 25.1 18.4 65.1 21 -4 24.8
13:00 1021 30.15 850 25.1 18.4 65.1 21 -4 24.8
13:05 1021 30.15 850 25.1 19.4 66.9 20 -4 24.8
13:10 1021 30.15 850 25.1 19.8 67.6 19 -4.4 24.2
13:15 1021 30.15 850 25.1 19.7 67.5 20 -4.1 24.7
13:20 1021 30.15 850 25.1 18.6 65.4 21 -4 24.7
13:25 1021 30.15 850 25.1 18 64.4 22 -4 24.9
13:30 1021 30.15 850 25.1 18.3 64.9 21 -4.1 24.7
13:35 1021 30.15 850 25.1 18.7 65.6 21 -4.1 24.7
13:40 1021 30.15 850 25.1 19.2 66.5 21 -3.6 25.5
13:45 1021 30.15 850 25.1 19.2 66.6 21 -3.4 25.9
13:50 1021 30.15 850 25.1 19.6 67.2 20 -3.8 25.1
13:55 1021 30.15 850 25.1 19.5 67.1 19 -4.4 24.1
14:00 1021 30.15 850 25.1 18.8 65.8 20 -4.8 23.4
14:05 1021 30.15 850 25.1 19.3 66.7 21 -3.8 25.2
14:10 1021 30.15 850 25.1 19.3 66.7 18 -5.7 21.8
14:15 1021 30.15 850 25.1 19.4 66.8 17 -5.9 21.4
14:20 1021 30.15 850 25.1 19.3 66.8 18 -5.1 22.8
14:25 1021 30.15 850 25.1 18.8 65.8 17 -6.3 20.6
14:30 1021 30.15 850 25.1 18.6 65.5 19 -5.6 22
14:35 1021 30.15 850 25.1 19.9 67.8 16 -6.5 20.2
14:40 1021 30.15 850 25.1 20 67.9 16 -6.8 19.8
14:45 1021 30.15 850 25.1 19.2 66.6 18 -5.6 21.9
14:50 1021 30.15 850 25.1 20.3 68.5 16 -6.2 20.8
14:55 1021 30.15 850 25.1 20.9 69.6 16 -5.9 21.4
15:00 1021 30.15 850 25.1 20.6 69 16 -6.1 21
15:05 1021 30.15 850 25.1 20.8 69.5 16 -6.2 20.9
15:10 1021 30.15 850 25.1 20.9 69.7 14 -7.2 19
15:15 1021 30.15 850 25.1 21.3 70.3 15 -6.5 20.3
15:20 1021 30.15 850 25.1 21.4 70.5 14 -6.8 19.8
15:25 1021 30.15 850 25.1 20.9 69.6 16 -6.1 21.1
15:30 1021 30.15 850 25.1 20.8 69.5 14 -7.2 19.1
15:35 1021 30.15 850 25.1 21.2 70.2 14 -6.8 19.8
15:40 1021 30.15 850 25.1 21.6 70.8 14 -6.7 19.9
15:45 1021 30.15 850 25.1 21.2 70.2 14 -7.3 18.9
15:50 1021 30.15 850 25.1 21.1 69.9 13 -8.1 17.5
15:55 1021 30.15 850 25.1 21.3 70.3 13 -7.9 17.8
16:00 1021 30.15 850 25.1 21.3 70.4 13 -7.9 17.9
16:05 1021 30.15 850 25.1 20.2 68.3 14 -7.6 18.3
16:10 1021 30.15 850 25.1 20.3 68.5 13 -8.6 16.6
16:15 1021 30.15 850 25.1 21.4 70.4 13 -7.8 17.9
16:20 1021 30.15 850 25.1 22 71.6 13 -7.2 19
16:25 1021 30.15 850 25.1 22.1 71.7 12 -8.3 17.1
16:30 1021 30.15 850 25.1 22.2 72 12 -8 17.7
16:35 1021 30.15 850 25.1 21.6 70.8 13 -8 17.6
16:40 1021 30.15 850 25.1 21.6 70.9 13 -8 17.6
16:45 1021 30.15 850 25.1 22.2 71.9 12 -8.3 17.1
16:50 1021 30.15 850 25.1 21.8 71.3 13 -8.1 17.4
16:55 1021 30.15 850 25.1 22 71.5 12 -8.3 17
17:00 1021 30.15 850 25.1 22.1 71.8 12 -8.5 16.8
17:05 1021 30.15 850 25.1 21.5 70.8 13 -8 17.6
17:10 1021 30.15 850 25.1 21.5 70.7 13 -8.1 17.5
17:15 1021 30.15 850 25.1 21.9 71.4 13 -7.4 18.7
17:20 1021 30.15 850 25.1 21.9 71.4 12 -8.2 17.3
17:25 1021 30.15 850 25.1 21.3 70.4 12 -8.8 16.1
17:30 1021 30.15 850 25.1 21 69.8 13 -8.2 17.2
17:35 1021 30.15 850 25.1 21.3 70.3 12 -9.3 15.3
17:40 1021 30.15 850 25.1 21.5 70.6 12 -8.6 16.6
17:45 1021 30.15 850 25.1 21.3 70.4 13 -8.5 16.6
17:50 1021 30.15 850 25.1 21 69.9 13 -8.1 17.5
17:55 1021 30.15 850 25.1 21.7 71 12 -8.6 16.4
18:00 1021 30.15 850 25.1 21.5 70.8 12 -8.7 16.4
18:05 1021 30.15 850 25.1 21.2 70.1 12 -8.8 16.1
18:10 1021 30.15 850 25.1 22 71.5 12 -8.1 17.4
18:15 1021 30.15 850 25.1 21.8 71.3 12 -8.6 16.4
18:20 1021 30.15 850 25.1 21.5 70.8 12 -8.5 16.6
18:25 1021 30.15 850 25.1 21.1 70 13 -8.6 16.5
18:30 1021 30.15 850 25.1 21.2 70.2 13 -8.3 17
18:35 1021 30.15 850 25.1 20.9 69.7 13 -8.3 17.1
18:40 1021 30.15 850 25.1 20.9 69.7 13 -8.4 16.9
18:45 1021 30.15 850 25.1 20.4 68.8 13 -8.9 16
18:50 1021 30.15 850 25.1 20.4 68.7 13 -8.8 16.1
18:55 1021 30.15 850 25.1 21.1 69.9 13 -8.2 17.3
19:00 1021 30.15 850 25.1 21.4 70.4 12 -8.9 16
19:05 1021 30.15 850 25.1 20.5 68.9 13 -8.6 16.5
19:10 1021 30.15 850 25.1 20.4 68.6 13 -9 15.8
19:15 1021 30.15 850 25.1 20.3 68.5 13 -9.2 15.4
19:20 1021 30.15 850 25.1 20.1 68.1 13 -9 15.8
19:25 1021 30.15 850 25.1 20.1 68.3 13 -9.4 15.1
19:30 1021 30.15 850 25.1 20 68.1 13 -9.4 15.1
19:35 1021 30.15 850 25.1 19.9 67.8 14 -8.7 16.3
19:40 1021 30.15 850 25.1 19.8 67.6 13 -9.5 14.9
19:45 1021 30.15 850 25.1 19.7 67.5 13 -9.1 15.7
19:50 1021 30.15 850 25.1 19.8 67.6 13 -8.9 16
19:55 1021 30.15 850 25.1 19.7 67.5 14 -8.6 16.5
20:00 1021 30.15 850 25.1 19.6 67.2 14 -8.6 16.6
20:05 1021 30.15 850 25.1 19.4 67 14 -8.9 16.1
20:10 1021 30.15 850 25.1 19.3 66.8 14 -8.5 16.8
20:15 1021 30.15 850 25.1 19.2 66.6 15 -8.3 17.1
20:20 1021 30.15 850 25.1 19.1 66.4 15 -8.5 16.7
20:25 1021 30.15 850 25.1 19 66.3 14 -8.6 16.5
20:30 1021 30.15 850 25.1 19 66.2 14 -8.7 16.4
20:35 1021 30.15 850 25.1 19 66.2 15 -8.4 16.8
20:40 1021 30.15 850 25.1 18.9 65.9 15 -8.3 17
20:45 1021 30.15 851 25.13 18.4 65 20 -5 22.9
20:50 1022 30.18 851 25.13 17.3 63.2 22 -4.4 24.1
20:55 1022 30.18 851 25.13 16.3 61.3 26 -3 26.5
21:00 1022 30.18 851 25.13 16.1 60.9 27 -3.1 26.5
21:05 1022 30.18 851 25.13 15.8 60.5 28 -2.7 27.2
21:10 1022 30.18 851 25.13 15.7 60.2 28 -2.5 27.5
21:15 1022 30.18 851 25.13 15.5 59.9 29 -2.5 27.6
21:20 1022 30.18 851 25.13 15.5 59.9 29 -2.5 27.4
21:25 1022 30.18 851 25.13 15.5 59.9 29 -2.6 27.4
21:30 1022 30.18 851 25.13 15.4 59.7 29 -2.4 27.6
21:35 1022 30.18 851 25.13 15.4 59.6 29 -2.7 27.2
21:40 1022 30.18 851 25.13 15.4 59.8 28 -2.7 27.1
21:45 1022 30.18 851 25.13 15.4 59.7 29 -2.5 27.5
21:50 1022 30.18 852 25.16 15.2 59.4 29 -2.6 27.4
21:55 1022 30.18 852 25.16 15.1 59.2 29 -2.5 27.4
22:00 1022 30.18 852 25.16 15 59 30 -2.5 27.4
22:05 1022 30.18 852 25.16 14.9 58.8 30 -2.5 27.4
22:10 1022 30.18 852 25.16 14.8 58.6 30 -2.6 27.3
22:15 1023 30.21 852 25.16 14.8 58.6 30 -2.7 27.2
22:20 1023 30.21 852 25.16 14.7 58.5 30 -2.7 27.2
22:25 1023 30.21 852 25.16 14.7 58.4 30 -2.7 27.1
22:30 1023 30.21 852 25.16 14.7 58.4 30 -2.7 27.1
22:35 1023 30.21 852 25.16 14.6 58.3 30 -2.7 27.1
22:40 1023 30.21 852 25.16 14.5 58.1 30 -2.7 27.1
22:45 1023 30.21 852 25.16 14.5 58 30 -2.8 27
22:50 1023 30.21 852 25.16 14.4 57.9 30 -2.9 26.8
22:55 1023 30.21 852 25.16 14.4 57.9 30 -2.8 27
23:00 1023 30.21 852 25.16 14.4 57.9 30 -2.9 26.8
23:05 1023 30.21 852 25.16 14.2 57.6 31 -2.8 27
23:10 1023 30.21 852 25.16 14 57.2 31 -2.9 26.8
23:15 1023 30.21 852 25.16 13.8 56.9 31 -2.9 26.8
23:20 1023 30.21 852 25.16 13.8 56.8 32 -2.8 27
23:25 1023 30.21 852 25.16 13.6 56.5 32 -2.8 27
23:30 1023 30.21 852 25.16 13.5 56.2 32 -2.7 27.2
23:35 1023 30.21 852 25.16 13.5 56.2 32 -2.8 27
23:40 1023 30.21 852 25.16 13.4 56.1 33 -2.6 27.4
23:45 1023 30.21 852 25.16 13.2 55.7 33 -2.5 27.6
23:50 1023 30.21 852 25.16 13 55.3 34 -2.4 27.6
23:55 1023 30.21 852 25.16 12.8 55 34 -2.5 27.5
24:00 1023 30.21 853 25.19 12.6 54.8 35 -2.4 27.7